Time;durP1;ratioP1;P1;durP2;ratioP2;P2;SDS_P1;SDS_P2;PMS_P1;PMS_P2;Temp;Humidity;BMP_temperature;BMP_pressure;BME280_temperature;BME280_humidity;BME280_pressure;Samples;Min_cycle;Max_cycle;Signal;HPM_P1;HPM_P2
2023/05/16 00:00:19;;;;;;;;;18.75;18.00;;;;;15.07;62.17;98725.69;5049831;28;45509;-83
2023/05/16 00:02:44;;;;;;;;;22.00;21.00;;;;;15.06;62.69;98733.75;5034404;28;45425;-83
2023/05/16 00:05:13;;;;;;;;;25.50;23.75;;;;;14.99;63.85;98738.59;5041424;28;45279;-82
2023/05/16 00:07:40;;;;;;;;;18.67;18.00;;;;;14.93;64.43;98700.00;5040687;28;45514;-83
2023/05/16 00:10:06;;;;;;;;;19.75;19.00;;;;;14.90;63.93;98750.66;5040375;28;45386;-82
2023/05/16 00:12:32;;;;;;;;;26.25;23.50;;;;;14.87;63.80;98742.03;5040868;28;45489;-83
2023/05/16 00:14:58;;;;;;;;;21.50;21.25;;;;;14.85;63.69;98742.13;5040943;28;45397;-84
2023/05/16 00:17:27;;;;;;;;;19.75;19.75;;;;;14.85;63.53;98750.09;5029587;28;47037;-82
2023/05/16 00:19:57;;;;;;;;;19.50;19.50;;;;;14.81;64.22;98727.34;5031013;28;45489;-84
2023/05/16 00:22:23;;;;;;;;;22.50;22.50;;;;;14.76;64.33;98734.75;5047271;28;45436;-83
2023/05/16 00:24:48;;;;;;;;;26.67;25.67;;;;;14.73;64.55;98758.00;5048290;28;45534;-83
2023/05/16 00:27:14;;;;;;;;;23.75;22.50;;;;;14.71;65.01;98755.44;5043863;28;46184;-82
2023/05/16 00:29:39;;;;;;;;;24.75;23.50;;;;;14.72;64.57;98743.00;5023212;28;46247;-83
2023/05/16 00:32:07;;;;;;;;;25.75;24.75;;;;;14.70;65.47;98756.38;5045122;28;45504;-83
2023/05/16 00:34:33;;;;;;;;;25.00;24.25;;;;;14.68;65.54;98737.03;5028319;28;45237;-82
2023/05/16 00:36:58;;;;;;;;;22.25;20.50;;;;;14.66;65.13;98737.13;5040192;28;46064;-82
2023/05/16 00:39:24;;;;;;;;;22.75;20.50;;;;;14.65;64.97;98724.81;5016068;28;45716;-82
2023/05/16 00:41:49;;;;;;;;;18.25;16.00;;;;;14.66;64.97;98733.63;5041555;28;45488;-82
2023/05/16 00:44:15;;;;;;;;;20.75;20.75;;;;;14.66;65.25;98734.47;5028990;28;45451;-81
2023/05/16 00:46:40;;;;;;;;;20.75;20.25;;;;;14.68;65.42;98736.19;5050534;28;46517;-83
2023/05/16 00:49:06;;;;;;;;;20.25;19.25;;;;;14.68;65.40;98741.50;5043242;28;45357;-83
2023/05/16 00:51:33;;;;;;;;;24.75;24.75;;;;;14.69;65.85;98732.59;5040139;28;45607;-83
2023/05/16 00:53:58;;;;;;;;;28.33;24.67;;;;;14.66;66.14;98733.63;5038594;28;45358;-84
2023/05/16 00:56:24;;;;;;;;;19.75;19.75;;;;;14.68;65.85;98725.56;5021796;28;46449;-83
2023/05/16 00:58:50;;;;;;;;;24.50;22.75;;;;;14.67;66.08;98730.03;5020154;28;45373;-83
2023/05/16 01:01:16;;;;;;;;;16.75;16.75;;;;;14.65;66.35;98726.63;5024666;28;45255;-83
2023/05/16 01:03:45;;;;;;;;;22.75;19.00;;;;;14.67;66.48;98730.03;5035677;28;45368;-83
2023/05/16 01:06:11;;;;;;;;;27.50;24.00;;;;;14.65;66.52;98722.16;5031284;28;45385;-83
2023/05/16 01:08:37;;;;;;;;;24.00;23.67;;;;;14.63;66.23;98723.19;5030824;28;45445;-83
2023/05/16 01:11:11;;;;;;;;;23.75;22.25;;;;;14.64;66.81;98724.91;5036792;28;45518;-83
2023/05/16 01:13:55;;;;;;;;;21.00;20.25;;;;;14.62;66.10;98719.69;5052158;28;45476;-82
2023/05/16 01:16:30;;;;;;;;;23.50;21.25;;;;;14.65;66.11;98739.88;5017217;28;47944;-82
2023/05/16 01:19:15;;;;;;;;;22.50;22.50;;;;;14.63;66.33;98713.44;5042353;28;45416;-82
2023/05/16 01:22:01;;;;;;;;;21.75;21.25;;;;;14.63;66.46;98715.25;5023051;28;45408;-82
2023/05/16 01:24:45;;;;;;;;;19.33;19.00;;;;;14.60;66.86;98721.59;5023150;28;45460;-82
2023/05/16 01:27:12;;;;;;;;;24.25;20.50;;;;;14.56;66.87;98737.81;5036798;28;46129;-83
2023/05/16 01:29:38;;;;;;;;;26.67;23.67;;;;;14.53;67.94;98733.56;5042619;28;45429;-83
2023/05/16 01:32:03;;;;;;;;;23.25;22.00;;;;;14.53;67.16;98724.75;5040524;28;45463;-82
2023/05/16 01:34:29;;;;;;;;;29.33;28.00;;;;;14.51;67.74;98721.31;5038666;28;45544;-83
2023/05/16 01:37:18;;;;;;;;;25.00;23.75;;;;;14.51;67.60;98724.84;5024562;28;48218;-82
2023/05/16 01:39:51;;;;;;;;;22.50;22.50;;;;;14.49;68.00;98716.13;5039758;28;45236;-83
2023/05/16 01:42:20;;;;;;;;;23.25;21.75;;;;;14.48;67.54;98716.22;5043327;28;45383;-83
2023/05/16 01:44:55;;;;;;;;;25.75;24.25;;;;;14.48;67.61;98711.75;5046920;28;45457;-82
2023/05/16 01:47:24;;;;;;;;;26.67;25.67;;;;;14.46;67.87;98702.19;5031187;28;46272;-83
2023/05/16 01:50:15;;;;;;;;;30.67;28.67;;;;;14.47;68.22;98698.59;5019430;28;45341;-84
2023/05/16 01:52:46;;;;;;;;;25.00;25.00;;;;;14.46;67.89;98712.78;5039449;28;45462;-82
2023/05/16 01:55:22;;;;;;;;;22.00;21.33;;;;;14.43;68.30;98697.91;5035373;28;45319;-82
2023/05/16 01:57:50;;;;;;;;;25.33;25.33;;;;;14.41;68.05;98715.72;5020734;28;47919;-82
2023/05/16 02:00:16;;;;;;;;;27.00;25.00;;;;;14.43;68.63;98718.28;5008301;28;45422;-84
2023/05/16 02:02:41;;;;;;;;;26.67;26.67;;;;;14.41;69.21;98713.06;5031745;28;45532;-84
2023/05/16 02:05:07;;;;;;;;;24.67;23.00;;;;;14.38;69.18;98707.94;5027460;28;45516;-83
2023/05/16 02:07:33;;;;;;;;;17.33;17.00;;;;;14.39;68.85;98706.16;5023671;28;47573;-82
2023/05/16 02:09:58;;;;;;;;;26.00;25.00;;;;;14.38;69.75;98700.00;5028018;28;45511;-83
2023/05/16 02:12:25;;;;;;;;;28.67;26.33;;;;;14.32;69.98;98701.22;5014921;28;45401;-83
2023/05/16 02:14:50;;;;;;;;;22.00;21.33;;;;;14.31;69.48;98698.66;5039536;28;45301;-83
2023/05/16 02:17:16;;;;;;;;;30.67;26.00;;;;;14.30;68.82;98683.69;5043526;28;46336;-83
2023/05/16 02:19:41;;;;;;;;;27.00;26.00;;;;;14.25;70.15;98678.66;5027094;28;45681;-83
2023/05/16 02:22:06;;;;;;;;;23.67;23.67;;;;;14.28;70.15;98701.50;5016853;28;45406;-83
2023/05/16 02:24:32;;;;;;;;;28.00;27.00;;;;;14.25;69.68;98707.84;5034817;28;45450;-82
2023/05/16 02:26:57;;;;;;;;;28.00;25.33;;;;;14.21;70.38;98716.94;5033418;28;45468;-82
2023/05/16 02:29:23;;;;;;;;;23.33;20.00;;;;;14.21;69.78;98726.69;5041534;28;45515;-82
2023/05/16 02:31:48;;;;;;;;;26.33;24.33;;;;;14.20;70.00;98699.34;5047902;28;45407;-82
2023/05/16 02:34:14;;;;;;;;;27.67;25.67;;;;;14.19;69.80;98707.38;5042941;28;45606;-82
2023/05/16 02:36:39;;;;;;;;;25.67;25.00;;;;;14.16;70.92;98718.16;5022406;28;47137;-82
2023/05/16 02:39:06;;;;;;;;;22.33;20.33;;;;;14.11;71.29;98699.88;5041669;28;45423;-82
2023/05/16 02:41:32;;;;;;;;;24.00;22.33;;;;;14.06;71.25;98707.28;5025982;28;45397;-82
2023/05/16 02:43:57;;;;;;;;;25.67;23.33;;;;;14.03;70.70;98703.97;5046482;28;45511;-82
2023/05/16 02:46:27;;;;;;;;;30.67;28.67;;;;;14.03;70.91;98706.59;5039902;28;46205;-82
2023/05/16 02:48:53;;;;;;;;;25.33;25.33;;;;;13.97;72.08;98721.06;5037453;28;45378;-82
2023/05/16 02:51:24;;;;;;;;;23.67;23.67;;;;;13.95;72.20;98701.75;5041426;28;45351;-82
2023/05/16 02:53:50;;;;;;;;;25.67;25.00;;;;;13.92;72.89;98701.94;5051799;28;45373;-83
2023/05/16 02:56:16;;;;;;;;;35.33;29.67;;;;;13.90;72.73;98703.84;5039888;28;45696;-82
2023/05/16 02:58:43;;;;;;;;;31.67;27.67;;;;;13.85;73.52;98713.88;5009540;28;45442;-82
2023/05/16 03:01:09;;;;;;;;;24.33;20.33;;;;;13.84;72.99;98698.91;5034644;28;45422;-81
2023/05/16 03:03:36;;;;;;;;;31.67;30.00;;;;;13.80;73.50;98708.84;5023082;28;45453;-82
2023/05/16 03:06:01;;;;;;;;;33.67;30.67;;;;;13.77;73.31;98701.06;5017336;28;46984;-83
2023/05/16 03:08:27;;;;;;;;;31.67;30.00;;;;;13.77;72.94;98689.63;5030125;28;45435;-82
2023/05/16 03:10:52;;;;;;;;;28.00;28.00;;;;;13.79;73.49;98691.22;5029436;28;45405;-82
2023/05/16 03:13:18;;;;;;;;;30.67;27.00;;;;;13.79;73.42;98693.88;5027759;28;45440;-83
2023/05/16 03:15:44;;;;;;;;;24.33;23.33;;;;;13.79;72.71;98707.13;5014689;28;46431;-81
2023/05/16 03:18:10;;;;;;;;;31.67;30.00;;;;;13.80;72.94;98698.25;5015232;28;45458;-82
2023/05/16 03:20:36;;;;;;;;;19.67;19.67;;;;;13.81;73.25;98707.88;5025849;28;45448;-83
2023/05/16 03:23:02;;;;;;;;;31.00;30.00;;;;;13.84;73.02;98709.50;5039737;28;45507;-82
2023/05/16 03:25:27;;;;;;;;;27.33;26.33;;;;;13.81;73.71;98699.94;5033903;28;45571;-82
2023/05/16 03:27:52;;;;;;;;;32.00;30.00;;;;;13.76;73.95;98690.56;5024133;28;45428;-83
2023/05/16 03:30:18;;;;;;;;;32.00;28.67;;;;;13.73;74.23;98698.72;5047564;28;45468;-82
2023/05/16 03:32:45;;;;;;;;;28.67;28.67;;;;;13.73;74.38;98701.34;5041922;28;45373;-82
2023/05/16 03:35:10;;;;;;;;;29.67;27.00;;;;;13.68;74.24;98684.88;5033016;28;45373;-82
2023/05/16 03:37:37;;;;;;;;;22.00;22.00;;;;;13.67;74.41;98696.41;5034721;28;45413;-83
2023/05/16 03:40:04;;;;;;;;;30.33;30.33;;;;;13.71;74.60;98693.50;5041994;28;45355;-83
2023/05/16 03:42:31;;;;;;;;;21.67;21.67;;;;;13.71;74.91;98690.00;5024144;28;45517;-83
2023/05/16 03:44:56;;;;;;;;;30.67;30.00;;;;;13.66;74.46;98687.63;5030903;28;47248;-82
2023/05/16 03:47:22;;;;;;;;;31.33;28.00;;;;;13.66;74.46;98702.66;5043116;28;45382;-81
2023/05/16 03:49:47;;;;;;;;;30.00;29.67;;;;;13.68;74.78;98706.06;5048854;28;45423;-83
2023/05/16 03:52:13;;;;;;;;;32.00;29.67;;;;;13.67;75.21;98685.81;5049642;28;45243;-83
2023/05/16 03:54:38;;;;;;;;;30.33;27.33;;;;;13.67;74.93;98699.91;5049389;28;45434;-82
2023/05/16 03:57:04;;;;;;;;;33.00;30.00;;;;;13.65;75.55;98688.56;5035873;28;45358;-83
2023/05/16 03:59:30;;;;;;;;;30.33;27.67;;;;;13.63;75.51;98686.00;5050072;28;45332;-83
2023/05/16 04:01:55;;;;;;;;;32.67;30.33;;;;;13.65;75.61;98688.56;5012488;28;45517;-83
2023/05/16 04:04:20;;;;;;;;;28.33;27.00;;;;;13.65;74.79;98696.50;5030832;28;48137;-82
2023/05/16 04:06:46;;;;;;;;;26.33;26.33;;;;;13.63;75.07;98688.66;5031439;28;45435;-83
2023/05/16 04:09:11;;;;;;;;;28.67;24.33;;;;;13.62;74.85;98701.97;5048118;28;45458;-81
2023/05/16 04:11:37;;;;;;;;;24.00;18.33;;;;;13.61;75.39;98694.97;5019265;28;45358;-81
2023/05/16 04:14:03;;;;;;;;;21.33;21.33;;;;;13.63;75.62;98701.03;5047952;28;45534;-83
2023/05/16 04:16:28;;;;;;;;;24.33;19.33;;;;;13.62;75.70;98702.84;5037445;28;45373;-82
2023/05/16 04:18:55;;;;;;;;;23.00;22.00;;;;;13.63;75.83;98716.94;5048233;28;45325;-82
2023/05/16 04:21:21;;;;;;;;;29.33;25.00;;;;;13.60;74.95;98719.75;5036758;28;45395;-81
2023/05/16 04:23:46;;;;;;;;;30.50;27.50;;;;;13.61;74.67;98689.69;5049730;28;45668;-82
2023/05/16 04:26:13;;;;;;;;;29.33;26.33;;;;;13.61;75.09;98698.47;5043591;28;45505;-82
2023/05/16 04:28:38;;;;;;;;;28.00;26.67;;;;;13.61;75.52;98695.81;5033401;28;45480;-81
2023/05/16 04:31:04;;;;;;;;;33.33;32.33;;;;;13.60;76.53;98698.56;5047734;28;45364;-83
2023/05/16 04:33:30;;;;;;;;;29.00;27.67;;;;;13.59;75.53;98686.25;5032830;28;47441;-81
2023/05/16 04:35:57;;;;;;;;;29.67;24.33;;;;;13.58;75.57;98689.84;5027189;28;45483;-84
2023/05/16 04:38:23;;;;;;;;;31.67;29.00;;;;;13.59;75.31;98695.06;5051403;28;45361;-82
2023/05/16 04:40:49;;;;;;;;;38.33;33.67;;;;;13.59;76.44;98695.06;5038601;28;45582;-82
2023/05/16 04:43:15;;;;;;;;;32.67;30.00;;;;;13.59;75.88;98705.66;5027066;28;45385;-81
2023/05/16 04:45:41;;;;;;;;;32.00;28.00;;;;;13.60;75.77;98706.50;5025316;28;45465;-82
2023/05/16 04:48:07;;;;;;;;;24.67;21.33;;;;;13.59;75.94;98707.44;5031685;28;45395;-81
2023/05/16 04:50:32;;;;;;;;;28.67;28.00;;;;;13.57;75.54;98686.34;5042664;28;45612;-81
2023/05/16 04:52:58;;;;;;;;;23.67;22.67;;;;;13.57;76.34;98688.19;5015033;28;47244;-82
2023/05/16 04:55:23;;;;;;;;;38.00;30.33;;;;;13.56;76.95;98697.91;5042988;28;45509;-82
2023/05/16 04:57:49;;;;;;;;;35.67;31.00;;;;;13.55;76.08;98682.97;5029993;28;45381;-81
2023/05/16 05:00:15;;;;;;;;;24.00;20.33;;;;;13.58;75.63;98711.03;5038371;28;45417;-81
2023/05/16 05:02:41;;;;;;;;;36.67;31.00;;;;;13.58;75.69;98685.41;5017616;28;45391;-82
2023/05/16 05:05:07;;;;;;;;;27.33;26.67;;;;;13.59;76.45;98691.56;5034285;28;45695;-83
2023/05/16 05:07:33;;;;;;;;;26.67;26.67;;;;;13.55;76.18;98682.97;5037753;28;45492;-81
2023/05/16 05:09:58;;;;;;;;;29.67;27.67;;;;;13.56;76.12;98674.06;5019912;28;45774;-82
2023/05/16 05:12:24;;;;;;;;;28.00;27.00;;;;;13.54;76.33;98705.09;5035788;28;45514;-82
2023/05/16 05:14:49;;;;;;;;;27.00;27.00;;;;;13.58;75.81;98684.56;5046818;28;45459;-83
2023/05/16 05:17:16;;;;;;;;;28.67;28.33;;;;;13.55;76.05;98692.72;5043360;28;45643;-82
2023/05/16 05:19:41;;;;;;;;;26.67;22.33;;;;;13.57;76.46;98677.59;5029455;28;45298;-82
2023/05/16 05:22:07;;;;;;;;;32.33;30.67;;;;;13.57;76.18;98686.34;5043989;28;45354;-82
2023/05/16 05:24:32;;;;;;;;;29.67;27.33;;;;;13.57;76.46;98677.59;5045467;28;45377;-82
2023/05/16 05:26:57;;;;;;;;;26.00;25.67;;;;;13.58;76.15;98687.19;5044307;28;45865;-83
2023/05/16 05:29:23;;;;;;;;;33.33;30.00;;;;;13.56;76.72;98684.69;5037691;28;45418;-82
2023/05/16 05:31:48;;;;;;;;;32.33;30.33;;;;;13.53;77.00;98690.16;5018311;28;48572;-83
2023/05/16 05:34:13;;;;;;;;;30.67;26.67;;;;;13.51;76.40;98676.13;5023708;28;45393;-82
2023/05/16 05:36:39;;;;;;;;;23.00;21.33;;;;;13.52;76.29;98682.28;5025630;28;45500;-82
2023/05/16 05:39:05;;;;;;;;;29.00;26.00;;;;;13.52;77.19;98685.78;5036450;28;45513;-82
2023/05/16 05:41:30;;;;;;;;;29.67;26.00;;;;;13.52;76.88;98679.63;5043913;28;45672;-82
2023/05/16 05:43:56;;;;;;;;;34.33;31.00;;;;;13.52;77.43;98684.94;5043121;28;45529;-82
2023/05/16 05:46:21;;;;;;;;;31.00;30.33;;;;;13.50;77.49;98687.66;5046261;28;45413;-83
2023/05/16 05:48:47;;;;;;;;;27.67;24.67;;;;;13.48;77.46;98689.56;5035294;28;45558;-83
2023/05/16 05:51:16;;;;;;;;;30.67;29.67;;;;;13.47;77.05;98682.56;5048808;28;45556;-82
2023/05/16 05:53:41;;;;;;;;;27.00;21.67;;;;;13.46;76.84;98694.09;5042760;28;45361;-82
2023/05/16 05:56:07;;;;;;;;;31.67;27.67;;;;;13.48;77.37;98686.06;5035442;28;45427;-83
2023/05/16 05:58:32;;;;;;;;;29.33;28.00;;;;;13.48;77.34;98689.56;5046213;28;45256;-83
2023/05/16 06:00:58;;;;;;;;;26.00;23.00;;;;;13.50;76.44;98677.06;5036771;28;46457;-82
2023/05/16 06:03:23;;;;;;;;;21.33;19.67;;;;;13.53;76.44;98699.88;5043585;28;45309;-83
2023/05/16 06:05:48;;;;;;;;;31.33;30.00;;;;;13.54;76.37;98691.00;5022244;28;45550;-82
2023/05/16 06:08:14;;;;;;;;;29.33;28.00;;;;;13.55;77.21;98684.75;5033537;28;45547;-83
2023/05/16 06:10:39;;;;;;;;;30.00;28.00;;;;;13.55;77.23;98695.34;5041727;28;47092;-83
2023/05/16 06:13:05;;;;;;;;;31.00;28.67;;;;;13.52;77.21;98687.59;5042863;28;45481;-82
2023/05/16 06:15:30;;;;;;;;;31.67;29.67;;;;;13.52;78.40;98684.94;5047934;28;45436;-83
2023/05/16 06:17:56;;;;;;;;;33.00;28.33;;;;;13.49;77.88;98699.22;5035790;28;45390;-82
2023/05/16 06:20:22;;;;;;;;;23.00;21.67;;;;;13.49;77.35;98695.69;5020010;28;46711;-83
2023/05/16 06:22:47;;;;;;;;;30.00;28.33;;;;;13.50;77.67;98684.16;5039837;28;45414;-83
2023/05/16 06:25:13;;;;;;;;;30.67;27.33;;;;;13.46;77.77;98698.53;5046745;28;45598;-83
2023/05/16 06:27:38;;;;;;;;;29.33;26.00;;;;;13.47;77.96;98693.16;5035281;28;45563;-81
2023/05/16 06:30:04;;;;;;;;;27.00;24.00;;;;;13.46;78.47;98688.78;5042575;28;47123;-83
2023/05/16 06:32:30;;;;;;;;;32.33;30.67;;;;;13.43;78.58;98680.16;5023150;28;45433;-83
2023/05/16 06:34:55;;;;;;;;;29.33;27.33;;;;;13.37;80.04;98692.00;5046099;28;45426;-83
2023/05/16 06:37:22;;;;;;;;;31.00;27.33;;;;;13.35;79.82;98683.28;5032903;28;45461;-81
2023/05/16 06:39:48;;;;;;;;;31.00;29.67;;;;;13.34;80.21;98688.66;5036068;28;47469;-82
2023/05/16 06:42:13;;;;;;;;;31.00;27.67;;;;;13.30;80.25;98719.75;5025560;28;45463;-83
2023/05/16 06:44:39;;;;;;;;;27.33;24.00;;;;;13.30;80.31;98703.00;5029243;28;45462;-83
2023/05/16 06:47:05;;;;;;;;;23.67;22.00;;;;;13.28;80.22;98711.88;5033227;28;45496;-82
2023/05/16 06:49:30;;;;;;;;;24.33;21.33;;;;;13.25;80.54;98684.72;5039038;28;45434;-82
2023/05/16 06:51:55;;;;;;;;;33.33;28.67;;;;;13.24;81.11;98728.03;5037960;28;45506;-82
2023/05/16 06:54:21;;;;;;;;;29.33;29.33;;;;;13.20;82.04;98719.44;5048466;28;45439;-83
2023/05/16 06:56:46;;;;;;;;;27.33;26.00;;;;;13.16;82.27;98722.34;5020176;28;45448;-82
2023/05/16 06:59:12;;;;;;;;;34.67;31.67;;;;;13.12;82.58;98713.69;5030234;28;45649;-82
2023/05/16 07:01:37;;;;;;;;;38.00;33.33;;;;;13.08;82.37;98698.06;5024556;28;45362;-82
2023/05/16 07:04:02;;;;;;;;;37.00;32.00;;;;;13.03;83.80;98730.09;5028472;28;45396;-82
2023/05/16 07:06:28;;;;;;;;;37.00;33.33;;;;;13.00;85.17;98702.94;5020383;28;45827;-84
2023/05/16 07:08:53;;;;;;;;;19.33;18.00;;;;;12.97;83.79;98711.03;5037123;28;46008;-84
2023/05/16 07:11:18;;;;;;;;;31.00;30.67;;;;;12.96;84.58;98702.25;5015202;28;45314;-84
2023/05/16 07:13:44;;;;;;;;;32.00;29.33;;;;;12.90;84.43;98715.84;5037427;28;45410;-84
2023/05/16 07:16:09;;;;;;;;;38.67;30.67;;;;;12.87;84.69;98711.56;5019099;28;45471;-83
2023/05/16 07:18:35;;;;;;;;;27.67;24.67;;;;;12.85;85.21;98709.94;5044882;28;45526;-83
2023/05/16 07:21:00;;;;;;;;;31.33;30.33;;;;;12.83;86.09;98730.34;5018012;28;45429;-84
2023/05/16 07:23:25;;;;;;;;;33.33;31.00;;;;;12.79;85.62;98737.59;5036802;28;45854;-84
2023/05/16 07:25:52;;;;;;;;;31.33;26.33;;;;;12.78;85.13;98712.06;5043492;28;45390;-82
2023/05/16 07:28:17;;;;;;;;;25.67;23.33;;;;;12.80;86.06;98715.50;5043892;28;46558;-81
2023/05/16 07:30:43;;;;;;;;;29.33;29.33;;;;;12.79;85.48;98697.06;5043047;28;45369;-84
2023/05/16 07:33:08;;;;;;;;;32.67;30.00;;;;;12.81;85.03;98725.13;5035759;28;45365;-82
2023/05/16 07:35:33;;;;;;;;;20.00;18.67;;;;;12.82;85.59;98707.47;5027996;28;45561;-82
2023/05/16 07:37:59;;;;;;;;;35.67;27.33;;;;;12.81;85.19;98716.34;5043672;28;45484;-81
2023/05/16 07:40:28;;;;;;;;;26.33;25.67;;;;;12.80;85.45;98723.44;5045208;28;45353;-81
2023/05/16 07:42:53;;;;;;;;;33.33;30.33;;;;;12.80;84.86;98718.13;5040683;28;45407;-82
2023/05/16 07:45:19;;;;;;;;;27.33;22.33;;;;;12.81;85.38;98714.56;5038948;28;45457;-82
2023/05/16 07:47:45;;;;;;;;;32.00;28.67;;;;;12.80;85.30;98691.69;5018305;28;48204;-82
2023/05/16 07:50:10;;;;;;;;;31.00;28.67;;;;;12.84;84.73;98692.38;5023352;28;45466;-82
2023/05/16 07:52:36;;;;;;;;;22.00;18.33;;;;;12.88;84.78;98734.44;5026353;28;45399;-82
2023/05/16 07:55:02;;;;;;;;;37.33;31.00;;;;;12.87;84.80;98705.44;5046577;28;45282;-83
2023/05/16 07:57:27;;;;;;;;;22.00;15.33;;;;;12.91;84.11;98704.28;5032893;28;46398;-82
2023/05/16 07:59:53;;;;;;;;;24.33;22.33;;;;;12.89;84.97;98704.41;5044291;28;45386;-81
2023/05/16 08:02:19;;;;;;;;;28.33;28.00;;;;;12.86;84.78;98736.31;5038312;28;45362;-81
2023/05/16 08:04:45;;;;;;;;;34.00;30.67;;;;;12.87;84.76;98703.63;5022408;28;45711;-83
2023/05/16 08:07:10;;;;;;;;;25.00;22.33;;;;;12.87;84.99;98708.94;5022174;28;47789;-81
2023/05/16 08:09:36;;;;;;;;;28.00;23.67;;;;;12.87;83.39;98716.00;5022888;28;45477;-82
2023/05/16 08:12:02;;;;;;;;;28.33;27.67;;;;;12.92;83.25;98703.34;5040452;28;46081;-81
2023/05/16 08:14:31;;;;;;;;;23.00;20.33;;;;;12.94;83.01;98702.34;5021206;28;45375;-82
2023/05/16 08:16:58;;;;;;;;;26.67;23.33;;;;;12.96;82.33;98707.53;5039941;28;45717;-82
2023/05/16 08:19:23;;;;;;;;;18.67;18.67;;;;;12.99;82.31;98728.53;5035832;28;45464;-81
2023/05/16 08:21:49;;;;;;;;;25.67;22.67;;;;;12.95;82.51;98697.91;5021479;28;45406;-81
2023/05/16 08:24:14;;;;;;;;;27.00;23.33;;;;;12.94;82.44;98697.03;5042067;28;45207;-81
2023/05/16 08:26:40;;;;;;;;;29.67;27.33;;;;;12.97;81.84;98711.91;5051744;28;45590;-83
2023/05/16 08:29:05;;;;;;;;;30.67;29.00;;;;;13.00;81.80;98692.34;5038739;28;45425;-83
2023/05/16 08:31:31;;;;;;;;;18.00;17.00;;;;;12.99;81.85;98702.09;5041169;28;45312;-82
2023/05/16 08:33:57;;;;;;;;;28.67;28.33;;;;;12.99;80.98;98730.34;5038652;28;45490;-82
2023/05/16 08:36:22;;;;;;;;;30.00;28.00;;;;;13.01;80.78;98707.28;5026206;28;46213;-82
2023/05/16 08:38:49;;;;;;;;;24.67;21.33;;;;;13.03;80.80;98703.63;5037483;28;45477;-83
2023/05/16 08:41:15;;;;;;;;;29.33;25.33;;;;;13.00;80.89;98695.00;5040554;28;45510;-81
2023/05/16 08:43:40;;;;;;;;;11.67;7.00;;;;;13.00;81.05;98689.72;5044575;28;45481;-82
2023/05/16 08:46:07;;;;;;;;;24.00;23.67;;;;;12.97;81.20;98705.75;5023374;28;47090;-81
2023/05/16 08:48:35;;;;;;;;;26.67;23.67;;;;;13.00;81.63;98719.66;5055964;28;45369;-83
2023/05/16 08:51:02;;;;;;;;;17.75;17.75;;;;;12.97;81.19;98718.97;5038248;28;45309;-83
2023/05/16 08:53:33;;;;;;;;;31.33;29.33;;;;;12.94;81.63;98736.72;5035111;28;45408;-82
2023/05/16 08:56:00;;;;;;;;;25.67;23.00;;;;;12.89;82.16;98722.94;5026843;28;47140;-82
2023/05/16 08:58:26;;;;;;;;;29.33;28.00;;;;;12.86;82.52;98691.34;5050022;28;45359;-81
2023/05/16 09:00:52;;;;;;;;;23.00;17.67;;;;;12.87;81.19;98703.63;5049128;28;45499;-82
2023/05/16 09:03:19;;;;;;;;;18.00;13.67;;;;;12.86;81.56;98712.50;5035930;28;45517;-82
2023/05/16 09:05:45;;;;;;;;;27.00;24.00;;;;;12.90;81.50;98707.91;5054105;28;45396;-82
2023/05/16 09:08:11;;;;;;;;;25.67;20.67;;;;;12.89;80.65;98717.63;5040110;28;45417;-81
2023/05/16 09:10:37;;;;;;;;;19.67;15.00;;;;;12.92;80.90;98717.44;5030969;28;45467;-82
2023/05/16 09:13:03;;;;;;;;;19.00;17.67;;;;;12.99;80.18;98748.88;5035663;28;45417;-82
2023/05/16 09:15:33;;;;;;;;;27.25;21.75;;;;;13.04;80.28;98715.91;5039002;28;45491;-83
2023/05/16 09:18:01;;;;;;;;;27.67;22.67;;;;;13.11;79.94;98708.47;5025334;28;45471;-82
2023/05/16 09:20:27;;;;;;;;;23.00;19.00;;;;;13.15;79.95;98683.56;5048252;28;45325;-82
2023/05/16 09:22:55;;;;;;;;;23.67;20.33;;;;;13.16;80.70;98690.56;5025015;28;45809;-82
2023/05/16 09:25:22;;;;;;;;;20.33;16.00;;;;;13.16;80.63;98730.28;5030898;28;46343;-82
2023/05/16 09:27:52;;;;;;;;;27.00;24.67;;;;;13.15;81.31;98691.50;5042330;28;45499;-82
2023/05/16 09:30:22;;;;;;;;;25.67;20.67;;;;;13.14;80.81;98692.41;5029562;28;45377;-82
2023/05/16 09:32:51;;;;;;;;;22.25;21.25;;;;;13.13;80.52;98702.16;5036825;28;45516;-83
2023/05/16 09:38:19;;;;;;;;;14.00;13.50;;;;;13.09;79.25;98727.06;5036936;28;45592;-82
2023/05/16 09:40:45;;;;;;;;;19.00;18.50;;;;;13.14;78.52;98750.66;5043102;28;45778;-84
2023/05/16 09:43:15;;;;;;;;;17.50;13.50;;;;;13.16;79.54;98712.59;5026578;28;45646;-83
2023/05/16 09:45:45;;;;;;;;;12.75;12.75;;;;;13.14;79.19;98693.28;5041833;28;46182;-81
2023/05/16 09:48:14;;;;;;;;;19.25;16.00;;;;;13.15;79.69;98710.03;5017962;28;45499;-82
2023/05/16 09:50:41;;;;;;;;;8.75;7.25;;;;;13.17;78.58;98721.41;5025087;28;45513;-82
2023/05/16 09:53:07;;;;;;;;;9.00;6.00;;;;;13.13;78.62;98731.25;5034778;28;45383;-82
2023/05/16 09:55:33;;;;;;;;;14.00;13.50;;;;;13.14;78.43;98706.50;5044656;28;46142;-83
2023/05/16 09:57:58;;;;;;;;;12.50;10.00;;;;;13.13;78.50;98722.47;5045028;28;45428;-81
2023/05/16 10:00:32;;;;;;;;;14.75;11.75;;;;;13.08;79.30;98674.22;5036353;28;45590;-81
2023/05/16 10:02:58;;;;;;;;;11.00;10.50;;;;;13.03;78.75;98685.09;5024134;28;45480;-81
2023/05/16 10:05:26;;;;;;;;;10.50;10.50;;;;;13.02;79.91;98707.22;5017112;28;46334;-80
2023/05/16 10:07:55;;;;;;;;;13.25;11.00;;;;;12.99;80.33;98712.66;5034026;28;45355;-80
2023/05/16 10:10:20;;;;;;;;;13.00;10.50;;;;;13.03;78.89;98692.19;5034743;28;45560;-80
2023/05/16 10:12:46;;;;;;;;;14.00;11.00;;;;;13.08;78.62;98708.63;5017016;28;45303;-80
2023/05/16 10:15:13;;;;;;;;;10.00;9.00;;;;;13.14;78.18;98732.13;5019689;28;47632;-82
2023/05/16 10:17:44;;;;;;;;;10.25;9.75;;;;;13.14;78.00;98681.84;5040906;28;45512;-83
2023/05/16 10:20:11;;;;;;;;;8.50;8.50;;;;;13.21;77.92;98681.44;5044318;28;45512;-81
2023/05/16 10:22:43;;;;;;;;;7.50;7.50;;;;;13.23;78.41;98690.16;5046001;28;45349;-84
2023/05/16 10:25:16;;;;;;;;;7.75;7.75;;;;;13.24;79.87;98681.22;5041247;28;45483;-84
2023/05/16 10:27:43;;;;;;;;;7.50;5.50;;;;;13.20;81.08;98692.97;5021921;28;45476;-81
2023/05/16 10:30:09;;;;;;;;;9.00;8.25;;;;;13.20;81.22;98678.88;5046097;28;45403;-82
2023/05/16 10:32:36;;;;;;;;;7.50;7.50;;;;;13.17;81.39;98674.59;5029452;28;45351;-84
2023/05/16 10:35:02;;;;;;;;;10.25;8.00;;;;;13.12;81.93;98707.53;5041084;28;45417;-84
2023/05/16 10:37:30;;;;;;;;;5.50;5.50;;;;;13.12;81.81;98718.13;5036468;28;45622;-86
2023/05/16 10:39:58;;;;;;;;;10.50;9.50;;;;;13.15;81.79;98697.66;5021416;28;45506;-84
2023/05/16 10:42:23;;;;;;;;;8.50;8.50;;;;;13.15;80.82;98680.94;5037184;28;45589;-82
2023/05/16 10:44:55;;;;;;;;;4.25;4.25;;;;;13.11;80.24;98704.03;5016129;28;47786;-83
2023/05/16 10:47:20;;;;;;;;;8.40;7.00;;;;;13.10;80.72;98734.06;5040228;28;45522;-79
2023/05/16 10:49:46;;;;;;;;;2.50;2.00;;;;;13.09;81.46;98715.63;5022143;28;45437;-82
2023/05/16 10:52:12;;;;;;;;;9.75;7.00;;;;;13.03;81.75;98700.13;5015034;28;45525;-83
2023/05/16 10:54:38;;;;;;;;;8.75;8.25;;;;;12.99;81.97;98710.03;5047626;28;46370;-84
2023/05/16 10:57:24;;;;;;;;;4.75;4.75;;;;;12.97;82.07;98695.16;5026083;28;45435;-84
2023/05/16 10:59:51;;;;;;;;;8.00;8.00;;;;;12.92;83.98;98721.88;5036063;28;45250;-84
2023/05/16 11:02:33;;;;;;;;;13.00;9.25;;;;;12.83;84.57;98725.91;5036960;28;45548;-82
2023/05/16 11:05:01;;;;;;;;;13.00;12.00;;;;;12.72;87.42;98706.28;5023895;28;47299;-79
2023/05/16 11:07:35;;;;;;;;;13.25;12.00;;;;;12.64;86.58;98727.00;5037524;28;45438;-81
2023/05/16 11:10:09;;;;;;;;;12.00;11.75;;;;;12.57;87.92;98710.59;5023816;28;45484;-82
2023/05/16 11:12:47;;;;;;;;;15.50;12.50;;;;;12.54;88.52;98709.00;5042277;28;45528;-82
2023/05/16 11:15:31;;;;;;;;;12.50;12.00;;;;;12.56;88.16;98682.47;5026471;28;48093;-81
2023/05/16 11:18:15;;;;;;;;;11.75;10.75;;;;;12.58;87.35;98733.47;5039501;28;45516;-82
2023/05/16 11:20:41;;;;;;;;;9.00;7.00;;;;;12.62;88.17;98699.78;5033104;28;45618;-82